Time;durP1;ratioP1;P1;durP2;ratioP2;P2;SDS_P1;SDS_P2;PMS_P1;PMS_P2;Temp;Humidity;BMP_temperature;BMP_pressure;BME280_temperature;BME280_humidity;BME280_pressure;Samples;Min_cycle;Max_cycle;Signal;HPM_P1;HPM_P2
2021/03/04 00:02:25;;;;;;;167.15;47.78;;;;;;;9.40;59.07;102348.44;4943294;28;117214;-70
2021/03/04 00:04:52;;;;;;;133.93;45.35;;;;;;;9.38;58.90;102352.88;4939143;28;119316;-69
2021/03/04 00:07:19;;;;;;;183.60;45.38;;;;;;;9.39;59.05;102354.59;4970656;28;123930;-69
2021/03/04 00:09:45;;;;;;;136.93;44.80;;;;;;;9.41;58.90;102367.81;4974781;28;122500;-70
2021/03/04 00:12:12;;;;;;;135.10;45.80;;;;;;;9.42;59.14;102354.56;4941888;28;119476;-69
2021/03/04 00:14:39;;;;;;;140.10;46.40;;;;;;;9.43;59.05;102361.59;4939030;28;119626;-69
2021/03/04 00:17:05;;;;;;;138.02;48.00;;;;;;;9.41;59.35;102355.44;4931485;28;123259;-69
2021/03/04 00:19:32;;;;;;;167.68;47.08;;;;;;;9.40;59.27;102351.09;4943357;28;122933;-70
2021/03/04 00:21:59;;;;;;;165.75;46.28;;;;;;;9.36;59.32;102349.34;4944550;28;118585;-69
2021/03/04 00:24:25;;;;;;;192.10;50.40;;;;;;;9.35;59.24;102344.97;4950185;28;119088;-69
2021/03/04 00:26:52;;;;;;;156.20;48.25;;;;;;;9.35;59.44;102334.41;4939042;28;123251;-69
2021/03/04 00:29:19;;;;;;;157.50;45.65;;;;;;;9.35;59.26;102344.97;4957122;28;122161;-69
2021/03/04 00:31:45;;;;;;;160.73;48.67;;;;;;;9.35;59.84;102350.28;4937843;28;120770;-69
2021/03/04 00:34:12;;;;;;;159.35;49.60;;;;;;;9.35;59.20;102347.63;4936687;28;119223;-70
2021/03/04 00:36:39;;;;;;;147.77;47.88;;;;;;;9.33;59.63;102338.84;4946214;28;124758;-68
2021/03/04 00:39:07;;;;;;;167.93;48.05;;;;;;;9.32;59.58;102342.38;4946441;28;123476;-69
2021/03/04 00:41:35;;;;;;;147.70;48.53;;;;;;;9.33;59.50;102338.84;4940849;28;117943;-69
2021/03/04 00:44:04;;;;;;;148.77;49.15;;;;;;;9.33;59.74;102339.72;4939432;28;118939;-69
2021/03/04 00:46:31;;;;;;;204.23;52.38;;;;;;;9.32;59.74;102337.09;4942041;28;122713;-68
2021/03/04 00:48:58;;;;;;;295.38;55.95;;;;;;;9.34;59.84;102340.56;4944636;28;124796;-68
2021/03/04 00:51:25;;;;;;;227.43;54.63;;;;;;;9.33;59.85;102325.63;4941540;28;118960;-68
2021/03/04 00:53:51;;;;;;;170.43;54.10;;;;;;;9.33;59.68;102333.56;4968604;28;119274;-69
2021/03/04 00:56:18;;;;;;;160.07;52.45;;;;;;;9.33;60.07;102322.97;4960060;28;124015;-69
2021/03/04 00:58:45;;;;;;;162.13;52.83;;;;;;;9.34;59.77;102324.72;4937307;28;122714;-68
2021/03/04 01:01:11;;;;;;;218.48;56.80;;;;;;;9.32;60.00;102326.50;4943246;28;117022;-68
2021/03/04 01:03:38;;;;;;;159.65;52.38;;;;;;;9.32;59.63;102332.69;4945199;28;118752;-68
2021/03/04 01:06:05;;;;;;;241.10;59.35;;;;;;;9.31;59.89;102327.44;4943169;28;123981;-68
2021/03/04 01:08:32;;;;;;;165.75;54.17;;;;;;;9.28;59.83;102335.41;4937285;28;123365;-68
2021/03/04 01:10:59;;;;;;;171.40;54.28;;;;;;;9.27;60.20;102328.38;4934831;28;118735;-69
2021/03/04 01:13:25;;;;;;;186.27;55.33;;;;;;;9.25;60.29;102319.56;4946794;28;117819;-69
2021/03/04 01:15:52;;;;;;;155.82;53.47;;;;;;;9.22;60.32;102314.34;4939688;28;123107;-68
2021/03/04 01:18:26;;;;;;;149.75;51.45;;;;;;;9.21;60.41;102307.31;4938302;28;125529;-68
2021/03/04 01:20:53;;;;;;;151.07;51.53;;;;;;;9.21;60.05;102308.19;4975208;28;120915;-69
2021/03/04 01:23:20;;;;;;;156.10;51.78;;;;;;;9.22;60.29;102309.06;4933171;28;120029;-69
2021/03/04 01:25:47;;;;;;;147.70;51.35;;;;;;;9.22;60.35;102298.50;4943598;28;124769;-69
2021/03/04 01:28:14;;;;;;;160.45;54.28;;;;;;;9.24;60.36;102296.69;4939381;28;123102;-69
2021/03/04 01:30:41;;;;;;;181.73;53.42;;;;;;;9.24;60.43;102299.34;4940793;28;118945;-69
2021/03/04 01:33:17;;;;;;;;;;;;;;;9.24;59.73;102294.91;4940010;28;120053;-68
2021/03/04 01:35:47;;;;;;;167.75;52.92;;;;;;;9.24;59.68;102296.69;4942641;28;124299;-68
2021/03/04 01:38:15;;;;;;;175.35;54.17;;;;;;;9.19;59.73;102293.25;4939298;28;123894;-69
2021/03/04 01:40:42;;;;;;;176.52;54.13;;;;;;;9.16;59.99;102284.47;4975667;28;118475;-69
2021/03/04 01:43:09;;;;;;;181.30;53.33;;;;;;;9.18;60.23;102286.22;4968652;28;117943;-69
2021/03/04 01:45:35;;;;;;;177.10;54.92;;;;;;;9.18;60.26;102291.50;4955756;28;123220;-69
2021/03/04 01:48:03;;;;;;;189.70;55.33;;;;;;;9.16;60.11;102289.75;4961683;28;122008;-69
2021/03/04 01:50:31;;;;;;;189.55;54.30;;;;;;;9.15;60.27;102281.84;4974999;28;118314;-69
2021/03/04 01:52:58;;;;;;;184.65;55.53;;;;;;;9.14;60.26;102275.69;4936044;28;118126;-68
2021/03/04 01:55:25;;;;;;;249.98;57.17;;;;;;;9.16;60.36;102262.44;4946891;28;123352;-68
2021/03/04 01:57:52;;;;;;;339.38;57.50;;;;;;;9.18;60.20;102259.78;4938204;28;124136;-69
2021/03/04 02:00:20;;;;;;;227.43;55.95;;;;;;;9.20;60.24;102263.28;4917206;28;118328;-69
2021/03/04 02:02:47;;;;;;;184.25;55.45;;;;;;;9.22;60.29;102266.78;4929178;28;117005;-68
2021/03/04 02:05:15;;;;;;;262.13;58.42;;;;;;;9.24;60.48;102270.25;4941531;28;124510;-68
2021/03/04 02:08:17;;;;;;;389.50;60.60;;;;;;;9.24;60.45;102259.69;4942777;28;123866;-69
2021/03/04 02:10:50;;;;;;;401.88;60.45;;;;;;;9.24;60.28;102244.69;4942151;28;119895;-68
2021/03/04 02:13:29;;;;;;;220.10;59.13;;;;;;;9.25;60.54;102245.53;4941367;28;117943;-69
2021/03/04 02:16:09;;;;;;;237.52;58.80;;;;;;;9.26;60.66;102248.16;4959638;28;123763;-69
2021/03/04 02:18:41;;;;;;;188.23;57.25;;;;;;;9.27;60.49;102263.16;4936310;28;123668;-68
2021/03/04 02:21:36;;;;;;;239.55;59.70;;;;;;;9.30;60.27;102254.28;4935992;28;119401;-69
2021/03/04 02:24:14;;;;;;;475.00;65.20;;;;;;;9.34;60.51;102250.69;4939051;28;118457;-69
2021/03/04 02:27:06;;;;;;;309.20;60.13;;;;;;;9.35;60.34;102257.72;4938976;28;124766;-69
2021/03/04 02:29:38;;;;;;;209.30;58.05;;;;;;;9.35;60.63;102247.16;4936957;28;124322;-69
2021/03/04 02:32:07;;;;;;;229.07;59.17;;;;;;;9.31;60.56;102240.19;4942587;28;119988;-69
2021/03/04 02:34:38;;;;;;;213.30;59.30;;;;;;;9.30;60.26;102243.72;4941136;28;119922;-68
2021/03/04 02:37:05;;;;;;;188.73;58.33;;;;;;;9.30;60.67;102238.41;4941378;28;123808;-69
2021/03/04 02:39:32;;;;;;;207.93;58.65;;;;;;;9.29;60.47;102232.25;4939889;28;123237;-68
2021/03/04 02:41:59;;;;;;;180.90;57.65;;;;;;;9.29;60.62;102231.41;4943258;28;119756;-68
2021/03/04 02:44:27;;;;;;;407.45;64.07;;;;;;;9.29;60.67;102231.41;4945975;28;118496;-69
2021/03/04 02:46:53;;;;;;;210.88;61.15;;;;;;;9.26;60.87;102216.44;4974483;28;123217;-69
2021/03/04 02:49:38;;;;;;;203.73;60.30;;;;;;;9.25;60.61;102216.47;4967375;28;124077;-68
2021/03/04 02:52:06;;;;;;;282.20;59.85;;;;;;;9.23;60.52;102215.63;4942904;28;119329;-68
2021/03/04 02:54:33;;;;;;;316.25;60.80;;;;;;;9.21;60.66;102217.41;4945264;28;118344;-68
2021/03/04 02:57:02;;;;;;;192.75;58.80;;;;;;;9.19;60.89;102208.66;4944130;28;124199;-69
2021/03/04 02:59:31;;;;;;;284.02;61.50;;;;;;;9.19;60.64;102187.50;4973123;28;123501;-69
2021/03/04 03:02:00;;;;;;;183.20;60.53;;;;;;;9.21;60.86;102196.28;4943495;28;119051;-68
2021/03/04 03:04:28;;;;;;;502.27;68.43;;;;;;;9.22;60.79;102187.47;4971702;28;120017;-68
2021/03/04 03:06:55;;;;;;;211.20;61.33;;;;;;;9.22;60.84;102182.19;4941925;28;123519;-68
2021/03/04 03:09:23;;;;;;;233.57;62.45;;;;;;;9.21;60.74;102180.41;4939492;28;124748;-68
2021/03/04 03:11:50;;;;;;;256.92;62.45;;;;;;;9.18;60.75;102191.94;4955742;28;119102;-68
2021/03/04 03:14:18;;;;;;;225.25;61.08;;;;;;;9.16;61.01;102189.31;4942544;28;119252;-69
2021/03/04 03:16:45;;;;;;;224.60;63.30;;;;;;;9.14;60.76;102191.09;4941092;28;124269;-68
2021/03/04 03:19:12;;;;;;;230.70;63.03;;;;;;;9.17;60.93;102190.16;4943045;28;123928;-68
2021/03/04 03:21:39;;;;;;;223.23;64.88;;;;;;;9.18;61.07;102185.78;4971046;28;118288;-69
2021/03/04 03:24:06;;;;;;;234.82;64.38;;;;;;;9.16;61.02;102178.72;4953402;28;118507;-68
2021/03/04 03:26:33;;;;;;;194.50;61.88;;;;;;;9.16;60.89;102178.72;4952486;28;122777;-69
2021/03/04 03:29:00;;;;;;;233.93;65.15;;;;;;;9.16;60.90;102178.72;4956159;28;124011;-68
2021/03/04 03:31:28;;;;;;;211.30;64.63;;;;;;;9.15;60.94;102187.59;4957690;28;119148;-69
2021/03/04 03:33:57;;;;;;;186.82;60.83;;;;;;;9.15;60.91;102177.00;4986811;28;118877;-68
2021/03/04 03:36:25;;;;;;;199.57;61.72;;;;;;;9.15;60.91;102171.72;4970746;28;122237;-68
2021/03/04 03:38:53;;;;;;;268.08;66.13;;;;;;;9.16;61.00;102168.16;4954239;28;123999;-69
2021/03/04 03:41:22;;;;;;;187.52;61.80;;;;;;;9.19;60.87;102169.00;4985157;28;118676;-68
2021/03/04 03:43:49;;;;;;;201.40;63.63;;;;;;;9.19;60.97;102150.50;4953623;28;119759;-68
2021/03/04 03:46:16;;;;;;;192.07;61.85;;;;;;;9.19;60.99;102150.50;4953557;28;122964;-69
2021/03/04 03:48:45;;;;;;;194.13;61.78;;;;;;;9.19;61.02;102163.72;4967237;28;123568;-68
2021/03/04 03:51:11;;;;;;;199.20;62.53;;;;;;;9.20;61.01;102162.84;4950800;28;119551;-68
2021/03/04 03:53:38;;;;;;;223.95;60.70;;;;;;;9.21;60.90;102162.81;4984092;28;119485;-67
2021/03/04 03:56:05;;;;;;;171.43;61.03;;;;;;;9.24;61.13;102175.09;4955056;28;124902;-69
2021/03/04 03:58:37;;;;;;;200.38;63.03;;;;;;;9.25;61.05;102176.81;4964451;28;122458;-68
2021/03/04 04:01:05;;;;;;;182.27;60.88;;;;;;;9.26;60.82;102178.56;4986419;28;118573;-69
2021/03/04 04:03:33;;;;;;;201.50;60.85;;;;;;;9.24;60.70;102175.09;4951604;28;117933;-69
2021/03/04 04:06:02;;;;;;;175.65;58.35;;;;;;;9.24;61.00;102170.66;4954714;28;123159;-69
2021/03/04 04:08:29;;;;;;;195.02;59.78;;;;;;;9.27;60.71;102169.75;4969232;28;123455;-68
2021/03/04 04:10:56;;;;;;;198.25;62.70;;;;;;;9.28;61.16;102174.13;4953210;28;119020;-69
2021/03/04 04:13:23;;;;;;;201.45;62.40;;;;;;;9.30;61.05;102174.97;4953292;28;119711;-69
2021/03/04 04:15:50;;;;;;;190.18;59.97;;;;;;;9.31;61.01;102167.00;4985344;28;123361;-69
2021/03/04 04:18:18;;;;;;;180.52;59.10;;;;;;;9.30;60.77;102159.09;4953711;28;123673;-69
2021/03/04 04:20:49;;;;;;;184.80;60.42;;;;;;;9.28;61.02;102150.34;4947887;28;119188;-69
2021/03/04 04:23:19;;;;;;;180.90;60.20;;;;;;;9.30;61.00;102145.88;4950840;28;119182;-68
2021/03/04 04:25:51;;;;;;;199.98;61.05;;;;;;;9.30;61.16;102132.66;4949185;28;122966;-68
2021/03/04 04:28:19;;;;;;;184.07;60.55;;;;;;;9.30;60.67;102137.94;4948740;28;124124;-68
2021/03/04 04:30:45;;;;;;;189.23;61.17;;;;;;;9.31;60.79;102145.00;4951210;28;118356;-69
2021/03/04 04:33:13;;;;;;;192.35;61.78;;;;;;;9.32;60.87;102141.44;4951061;28;119675;-69
2021/03/04 04:35:40;;;;;;;203.38;62.20;;;;;;;9.31;60.95;102129.13;4949975;28;122885;-69
2021/03/04 04:38:07;;;;;;;225.45;61.67;;;;;;;9.33;60.88;102122.03;4951185;28;123629;-69
2021/03/04 04:40:33;;;;;;;213.93;59.78;;;;;;;9.32;60.52;102125.56;4949562;28;120716;-69
2021/03/04 04:43:00;;;;;;;270.27;62.45;;;;;;;9.30;60.81;102132.66;4951146;28;119409;-69
2021/03/04 04:45:27;;;;;;;278.50;63.75;;;;;;;9.27;60.82;102130.97;4950987;28;122621;-68
2021/03/04 04:47:53;;;;;;;225.65;58.78;;;;;;;9.24;60.72;102116.94;4951028;28;121847;-69
2021/03/04 04:50:20;;;;;;;189.85;56.65;;;;;;;9.21;60.82;102127.56;4951609;28;120409;-69
2021/03/04 04:52:47;;;;;;;192.52;57.60;;;;;;;9.18;60.85;102127.63;4980668;28;118823;-69
2021/03/04 04:55:14;;;;;;;194.63;56.05;;;;;;;9.15;60.77;102134.72;4980347;28;122927;-69
2021/03/04 04:57:40;;;;;;;177.13;57.63;;;;;;;9.10;60.94;102128.63;4949662;28;121605;-69
2021/03/04 05:00:09;;;;;;;197.98;57.83;;;;;;;9.07;61.06;102120.75;4952575;28;118347;-68
2021/03/04 05:02:37;;;;;;;207.52;57.15;;;;;;;9.06;61.17;102111.09;4975517;28;118104;-68
2021/03/04 05:05:06;;;;;;;284.65;58.08;;;;;;;9.03;61.19;102112.91;4947087;28;123374;-68
2021/03/04 05:07:33;;;;;;;195.52;56.33;;;;;;;9.02;61.38;102106.75;4946120;28;122010;-69
2021/03/04 05:09:59;;;;;;;317.23;57.05;;;;;;;9.00;61.22;102097.97;4950210;28;118213;-68
2021/03/04 05:12:26;;;;;;;258.85;56.80;;;;;;;8.98;61.25;102107.69;4951198;28;119291;-69
2021/03/04 05:14:52;;;;;;;230.10;55.22;;;;;;;8.96;61.08;102104.22;4949458;28;123198;-68
2021/03/04 05:17:20;;;;;;;232.90;54.40;;;;;;;8.96;61.60;102096.28;4948810;28;123531;-68
2021/03/04 05:19:48;;;;;;;334.58;51.47;;;;;;;8.97;61.54;102103.34;4950948;28;119198;-68
2021/03/04 05:22:14;;;;;;;276.50;51.35;;;;;;;8.96;61.12;102101.56;4948493;28;118403;-68
2021/03/04 05:24:41;;;;;;;228.27;50.38;;;;;;;8.96;61.31;102101.56;4975506;28;124502;-68
2021/03/04 05:27:08;;;;;;;263.88;49.05;;;;;;;8.93;61.14;102093.72;4974538;28;122978;-68
2021/03/04 05:29:35;;;;;;;316.33;50.45;;;;;;;8.92;61.21;102097.25;4976626;28;119504;-69
2021/03/04 05:32:01;;;;;;;187.13;49.72;;;;;;;8.89;61.41;102102.56;4947257;28;120011;-68
2021/03/04 05:34:28;;;;;;;179.70;49.25;;;;;;;8.87;61.56;102101.72;4945191;28;123261;-68
2021/03/04 05:36:55;;;;;;;234.75;49.60;;;;;;;8.88;61.41;102103.50;4977196;28;123071;-69
2021/03/04 05:39:21;;;;;;;193.23;48.80;;;;;;;8.89;61.34;102094.66;4951105;28;118781;-69
2021/03/04 05:41:48;;;;;;;363.17;50.60;;;;;;;8.91;61.71;102092.84;4959719;28;118246;-68
2021/03/04 05:44:15;;;;;;;496.25;55.20;;;;;;;8.91;61.71;102103.41;4956404;28;123990;-69
2021/03/04 05:46:45;;;;;;;292.95;49.58;;;;;;;8.91;61.60;102103.41;4956327;28;124072;-69
2021/03/04 05:49:15;;;;;;;232.00;50.05;;;;;;;8.90;61.23;102097.28;4953482;28;119161;-69
2021/03/04 05:51:59;;;;;;;245.10;49.70;;;;;;;8.89;61.51;102092.00;4985690;28;117022;-68
2021/03/04 05:54:27;;;;;;;265.95;48.95;;;;;;;8.86;61.53;102090.31;4947781;28;124061;-68
2021/03/04 05:57:00;;;;;;;254.25;47.65;;;;;;;8.85;61.85;102082.41;4952887;28;122352;-69
2021/03/04 05:59:26;;;;;;;373.60;48.75;;;;;;;8.83;61.56;102084.19;4954192;28;119531;-68
2021/03/04 06:01:53;;;;;;;402.20;46.75;;;;;;;8.82;61.46;102077.19;4950862;28;117971;-70
2021/03/04 06:04:20;;;;;;;517.80;51.00;;;;;;;8.79;61.25;102071.94;4954708;28;124332;-69
2021/03/04 06:06:47;;;;;;;419.90;48.83;;;;;;;8.73;61.37;102079.06;4957266;28;123674;-69
2021/03/04 06:09:13;;;;;;;256.15;43.65;;;;;;;8.69;61.57;102076.53;4950819;28;118687;-67
2021/03/04 06:11:41;;;;;;;522.67;49.35;;;;;;;8.67;61.57;102084.47;4955197;28;118047;-71
2021/03/04 06:14:07;;;;;;;362.02;43.75;;;;;;;8.64;61.73;102089.78;4955911;28;123829;-70
2021/03/04 06:16:34;;;;;;;238.65;41.83;;;;;;;8.62;61.65;102094.22;4953100;28;123014;-70
2021/03/04 06:19:01;;;;;;;219.05;41.53;;;;;;;8.59;61.78;102091.66;4955142;28;119226;-70
2021/03/04 06:21:29;;;;;;;437.08;42.65;;;;;;;8.58;61.77;102095.19;4956181;28;119615;-70
2021/03/04 06:23:57;;;;;;;171.90;38.90;;;;;;;8.57;61.92;102094.31;4954906;28;125510;-67
2021/03/04 06:26:38;;;;;;;444.17;44.05;;;;;;;8.55;62.03;102100.50;4955736;28;123754;-69
2021/03/04 06:29:16;;;;;;;253.80;38.85;;;;;;;8.54;61.62;102117.25;4951558;28;119280;-69
2021/03/04 06:31:44;;;;;;;144.18;36.95;;;;;;;8.54;61.72;102119.91;4950985;28;118998;-68
2021/03/04 06:34:18;;;;;;;125.35;36.22;;;;;;;8.52;61.70;102116.41;4982377;28;124399;-69
2021/03/04 06:36:55;;;;;;;113.60;33.65;;;;;;;8.50;62.05;102118.22;4953747;28;123866;-68
2021/03/04 06:39:23;;;;;;;96.38;32.53;;;;;;;8.47;61.68;102120.91;4950087;28;119231;-69
2021/03/04 06:42:03;;;;;;;92.90;32.05;;;;;;;8.48;61.92;102114.72;4956373;28;119089;-68
2021/03/04 06:44:40;;;;;;;91.32;32.40;;;;;;;8.50;61.88;102118.22;4982831;28;124667;-68
2021/03/04 06:47:07;;;;;;;80.97;29.92;;;;;;;8.52;61.75;102121.69;4983928;28;123853;-68
2021/03/04 06:49:39;;;;;;;81.13;29.65;;;;;;;8.53;61.67;102112.88;4950496;28;119095;-68
2021/03/04 06:52:06;;;;;;;83.10;30.35;;;;;;;8.53;61.53;102112.88;4948025;28;119155;-69
2021/03/04 06:54:34;;;;;;;84.78;30.10;;;;;;;8.53;61.88;102112.88;4977148;28;124174;-69
2021/03/04 06:57:11;;;;;;;93.18;30.95;;;;;;;8.51;61.69;102109.38;4949869;28;124184;-69
2021/03/04 06:59:48;;;;;;;96.93;30.08;;;;;;;8.54;61.51;102109.34;4946190;28;119312;-69
2021/03/04 07:02:29;;;;;;;88.80;31.10;;;;;;;8.52;61.80;102108.50;4944216;28;118268;-69
2021/03/04 07:04:58;;;;;;;100.80;31.92;;;;;;;8.51;62.01;102105.00;4976068;28;123855;-68
2021/03/04 07:07:27;;;;;;;105.70;33.22;;;;;;;8.52;61.68;102111.13;4950870;28;123045;-68
2021/03/04 07:09:59;;;;;;;100.88;33.00;;;;;;;8.51;61.79;102104.09;4948811;28;121067;-68
2021/03/04 07:12:26;;;;;;;98.18;32.35;;;;;;;8.52;61.58;102100.56;4949005;28;120187;-68
2021/03/04 07:14:53;;;;;;;108.72;31.75;;;;;;;8.53;61.91;102097.91;4932470;28;123759;-69
2021/03/04 07:17:27;;;;;;;119.93;33.08;;;;;;;8.53;61.57;102091.75;4953609;28;123728;-69
2021/03/04 07:19:58;;;;;;;107.93;34.05;;;;;;;8.53;61.69;102091.75;4948467;28;118917;-68
2021/03/04 07:22:30;;;;;;;147.93;33.00;;;;;;;8.51;61.68;102093.53;4949187;28;119253;-69
2021/03/04 07:24:58;;;;;;;96.88;30.52;;;;;;;8.51;61.60;102104.09;4947453;28;123994;-69
2021/03/04 07:27:26;;;;;;;106.25;31.73;;;;;;;8.48;61.79;102106.81;4983046;28;123919;-69
2021/03/04 07:29:52;;;;;;;104.90;31.33;;;;;;;8.45;61.69;102104.22;4952709;28;119081;-68
2021/03/04 07:32:22;;;;;;;105.95;31.95;;;;;;;8.43;61.77;102098.09;4953321;28;119082;-69
2021/03/04 07:34:50;;;;;;;102.93;30.77;;;;;;;8.41;62.02;102102.47;4979009;28;124701;-69
2021/03/04 07:37:18;;;;;;;91.85;29.35;;;;;;;8.39;62.11;102095.44;4948037;28;124845;-69
2021/03/04 07:39:47;;;;;;;96.13;29.02;;;;;;;8.39;61.76;102094.59;4960200;28;118536;-69
2021/03/04 07:42:18;;;;;;;83.72;27.30;;;;;;;8.36;61.99;102095.50;4950379;28;119171;-69
2021/03/04 07:44:47;;;;;;;78.07;26.88;;;;;;;8.34;62.18;102086.75;4948510;28;123473;-69
2021/03/04 07:47:24;;;;;;;82.80;27.27;;;;;;;8.32;61.98;102088.50;4949360;28;96781;-69
2021/03/04 07:49:52;;;;;;;85.20;27.42;;;;;;;8.34;61.94;102102.59;4945971;28;119338;-69
2021/03/04 07:52:22;;;;;;;100.43;30.80;;;;;;;8.33;61.96;102098.19;4958047;28;118132;-69
2021/03/04 07:54:51;;;;;;;87.75;30.23;;;;;;;8.32;61.99;102098.22;4948437;28;124260;-69
2021/03/04 07:57:19;;;;;;;98.72;30.42;;;;;;;8.32;61.93;102096.44;4952199;28;123990;-69
2021/03/04 07:59:57;;;;;;;112.82;31.38;;;;;;;8.31;62.02;102094.72;4951620;28;120031;-69
2021/03/04 08:02:35;;;;;;;91.03;29.45;;;;;;;8.31;62.11;102096.47;4945619;28;119715;-69
2021/03/04 08:05:06;;;;;;;76.32;27.77;;;;;;;8.32;61.96;102088.50;4948108;28;125139;-69
2021/03/04 08:07:33;;;;;;;78.18;28.75;;;;;;;8.30;62.29;102081.53;4975756;28;123242;-69
2021/03/04 08:10:17;;;;;;;103.57;31.33;;;;;;;8.27;62.24;102085.09;4962081;28;118143;-70
2021/03/04 08:12:52;;;;;;;107.28;32.70;;;;;;;8.26;62.33;102083.34;4933306;28;120121;-69
2021/03/04 08:15:34;;;;;;;122.97;33.27;;;;;;;8.26;61.70;102077.19;4947086;28;123523;-70
2021/03/04 08:18:01;;;;;;;111.68;32.00;;;;;;;8.27;62.07;102077.19;4975889;28;123978;-69
2021/03/04 08:20:29;;;;;;;129.07;33.95;;;;;;;8.29;62.42;102077.16;4951555;28;119051;-70
2021/03/04 08:22:58;;;;;;;105.30;31.85;;;;;;;8.30;62.19;102063.91;4935890;28;118428;-67
2021/03/04 08:25:30;;;;;;;104.20;32.30;;;;;;;8.30;62.56;102061.28;4934141;28;124052;-70
2021/03/04 08:28:02;;;;;;;83.65;28.23;;;;;;;8.30;62.24;102063.91;4936780;28;124029;-70
2021/03/04 08:30:37;;;;;;;76.25;26.70;;;;;;;8.29;62.38;102066.59;4927421;28;119785;-69
2021/03/04 08:33:10;;;;;;;78.05;27.10;;;;;;;8.31;62.16;102065.66;4947872;28;118534;-69
2021/03/04 08:35:40;;;;;;;77.80;27.30;;;;;;;8.30;62.16;102063.91;4945047;28;124655;-69
2021/03/04 08:38:09;;;;;;;77.78;28.25;;;;;;;8.29;62.31;102056.91;4939830;28;123935;-69
2021/03/04 08:40:45;;;;;;;83.28;28.73;;;;;;;8.29;62.53;102072.75;4933749;28;118006;-68
2021/03/04 08:43:17;;;;;;;89.15;31.75;;;;;;;8.28;62.02;102071.00;4972251;28;119081;-70
2021/03/04 08:45:45;;;;;;;108.47;34.05;;;;;;;8.26;62.41;102072.78;4947523;28;123270;-69
2021/03/04 08:48:13;;;;;;;113.93;36.80;;;;;;;8.23;62.15;102075.50;4934481;28;123912;-69
2021/03/04 08:50:42;;;;;;;117.60;36.92;;;;;;;8.23;62.49;102083.41;4938941;28;120456;-69
2021/03/04 08:53:12;;;;;;;103.43;37.00;;;;;;;8.24;62.52;102074.56;4970387;28;120856;-68
2021/03/04 08:55:48;;;;;;;116.30;38.17;;;;;;;8.23;62.35;102067.56;4939978;28;124076;-68
2021/03/04 08:58:16;;;;;;;131.00;38.15;;;;;;;8.22;62.12;102071.09;4935981;28;124190;-67
2021/03/04 09:00:58;;;;;;;144.52;38.65;;;;;;;8.19;62.25;102077.31;4937109;28;119584;-67
2021/03/04 09:03:33;;;;;;;129.02;36.90;;;;;;;8.17;62.42;102072.91;4934710;28;119280;-66
2021/03/04 09:06:04;;;;;;;131.35;37.42;;;;;;;8.16;62.45;102071.19;4934045;28;124102;-66
2021/03/04 09:08:32;;;;;;;160.70;38.60;;;;;;;8.15;62.40;102069.44;4971229;28;125275;-67
2021/03/04 09:10:59;;;;;;;211.25;41.92;;;;;;;8.15;62.57;102058.88;4954313;28;119016;-67
2021/03/04 09:13:27;;;;;;;148.90;38.40;;;;;;;8.15;62.44;102058.88;4972102;28;119186;-66
2021/03/04 09:15:58;;;;;;;135.25;37.63;;;;;;;8.14;62.81;102041.31;4934269;28;123283;-67
2021/03/04 09:18:25;;;;;;;178.23;41.35;;;;;;;8.15;62.83;102043.06;4969829;28;124062;-67
2021/03/04 09:20:53;;;;;;;164.48;40.78;;;;;;;8.15;62.89;102043.06;4966556;28;119160;-67
2021/03/04 09:23:21;;;;;;;150.20;37.78;;;;;;;8.11;62.67;102041.34;4933190;28;119001;-67
2021/03/04 09:25:53;;;;;;;139.57;36.50;;;;;;;8.06;62.95;102032.63;4936905;28;124199;-68
2021/03/04 09:28:20;;;;;;;154.95;38.15;;;;;;;8.06;62.94;102032.63;4936558;28;122760;-66
2021/03/04 09:30:47;;;;;;;123.38;37.15;;;;;;;8.05;62.89;102052.00;4935409;28;119371;-66
2021/03/04 09:33:17;;;;;;;128.23;38.85;;;;;;;8.06;63.20;102059.03;4933752;28;119413;-66
2021/03/04 09:35:59;;;;;;;124.63;36.90;;;;;;;8.09;63.16;102056.34;4935776;28;122949;-68
2021/03/04 09:38:31;;;;;;;102.63;34.03;;;;;;;8.12;62.76;102065.09;4933465;28;126252;-69
2021/03/04 09:41:12;;;;;;;102.57;34.45;;;;;;;8.16;62.85;102060.63;4935261;28;120218;-67
2021/03/04 09:43:41;;;;;;;107.00;34.60;;;;;;;8.20;62.90;102067.59;4938473;28;120705;-68
2021/03/04 09:46:13;;;;;;;106.22;34.65;;;;;;;8.24;62.87;102071.94;4940483;28;124333;-69
2021/03/04 09:48:40;;;;;;;94.07;32.58;;;;;;;8.28;62.64;102072.75;4940279;28;123329;-68
2021/03/04 09:51:07;;;;;;;102.60;34.08;;;;;;;8.31;62.37;102073.59;4944468;28;120173;-69
2021/03/04 09:53:48;;;;;;;110.53;32.97;;;;;;;8.32;62.49;102075.31;4944250;28;119119;-68
2021/03/04 09:56:21;;;;;;;97.65;33.60;;;;;;;8.35;62.73;102077.91;4934151;28;127141;-68
2021/03/04 09:58:48;;;;;;;95.40;32.95;;;;;;;8.37;62.79;102073.47;4937925;28;123651;-68
2021/03/04 10:01:26;;;;;;;86.50;31.90;;;;;;;8.39;62.47;102074.31;4960957;28;118178;-67
2021/03/04 10:04:07;;;;;;;90.45;33.22;;;;;;;8.38;62.51;102062.03;4930275;28;119057;-68
2021/03/04 10:06:36;;;;;;;92.63;32.17;;;;;;;8.41;62.61;102076.09;4930921;28;124199;-68
2021/03/04 10:09:04;;;;;;;86.97;31.42;;;;;;;8.39;62.63;102079.59;4933566;28;124942;-67
2021/03/04 10:11:32;;;;;;;84.28;31.45;;;;;;;8.43;62.50;102074.31;4931965;28;119086;-67
2021/03/04 10:14:13;;;;;;;83.88;30.67;;;;;;;8.45;62.84;102069.88;4944973;28;118884;-69
2021/03/04 10:16:40;;;;;;;85.28;34.00;;;;;;;8.47;62.16;102070.72;4961279;22;123180;-73
2021/03/04 10:19:09;;;;;;;79.40;31.23;;;;;;;8.50;62.51;102075.97;4938093;28;123860;-72
2021/03/04 10:21:35;;;;;;;91.38;32.83;;;;;;;8.54;62.25;102077.66;4948701;28;119435;-72
2021/03/04 10:24:02;;;;;;;99.05;33.03;;;;;;;8.55;62.26;102079.38;4945900;28;118695;-72
2021/03/04 10:26:29;;;;;;;99.65;33.80;;;;;;;8.55;62.19;102068.81;4940485;28;123923;-72
2021/03/04 10:28:56;;;;;;;84.03;31.08;;;;;;;8.56;62.29;102076.72;4943037;28;123069;-72
2021/03/04 10:31:22;;;;;;;94.10;32.55;;;;;;;8.58;62.13;102068.78;4945956;28;120665;-72
2021/03/04 10:33:49;;;;;;;93.30;32.05;;;;;;;8.59;62.26;102073.19;4949846;28;120346;-73
2021/03/04 10:36:16;;;;;;;98.53;33.35;;;;;;;8.59;62.27;102067.91;4950516;28;124766;-72
2021/03/04 10:38:42;;;;;;;95.68;33.42;;;;;;;8.62;62.09;102070.47;4950354;28;123050;-73
2021/03/04 10:41:09;;;;;;;107.22;34.97;;;;;;;8.59;61.84;102065.25;4950236;28;118585;-72
2021/03/04 10:43:36;;;;;;;94.15;32.47;;;;;;;8.57;61.70;102061.78;4949355;28;119090;-73
2021/03/04 10:46:02;;;;;;;93.65;30.83;;;;;;;8.57;62.14;102072.34;4951776;28;124541;-73
2021/03/04 10:48:29;;;;;;;98.40;32.92;;;;;;;8.58;62.09;102068.78;4941769;28;124529;-72
2021/03/04 10:50:56;;;;;;;97.80;32.38;;;;;;;8.57;62.03;102072.34;4948718;28;118285;-72
2021/03/04 10:53:22;;;;;;;104.18;31.65;;;;;;;8.60;62.38;102071.41;4948080;28;118512;-73
2021/03/04 10:55:49;;;;;;;99.88;31.95;;;;;;;8.62;61.98;102065.19;4947848;28;122970;-72
2021/03/04 10:58:16;;;;;;;93.70;31.48;;;;;;;8.62;62.17;102062.53;4949587;28;123563;-72
2021/03/04 11:00:43;;;;;;;106.07;33.20;;;;;;;8.62;61.99;102059.91;4950022;28;119547;-72
2021/03/04 11:03:10;;;;;;;93.38;30.67;;;;;;;8.59;61.87;102059.97;4956715;28;118813;-73
2021/03/04 11:05:37;;;;;;;91.07;31.10;;;;;;;8.58;61.73;102060.84;4943034;28;123942;-72
2021/03/04 11:08:04;;;;;;;98.15;31.02;;;;;;;8.58;61.94;102063.50;4951462;28;123963;-72
2021/03/04 11:10:31;;;;;;;99.57;31.58;;;;;;;8.59;62.02;102065.25;4951311;28;120169;-72
2021/03/04 11:12:57;;;;;;;96.40;31.73;;;;;;;8.61;62.47;102073.13;4950414;28;119067;-73
2021/03/04 11:15:24;;;;;;;95.75;31.20;;;;;;;8.62;62.25;102070.47;4951406;28;124130;-73